Time;durP1;ratioP1;P1;durP2;ratioP2;P2;SDS_P1;SDS_P2;PMS_P1;PMS_P2;Temp;Humidity;BMP_temperature;BMP_pressure;BME280_temperature;BME280_humidity;BME280_pressure;Samples;Min_cycle;Max_cycle;Signal;HPM_P1;HPM_P2
2023/08/21 00:02:23;;;;;;;10.18;3.85;;;16.90;99.90;;;;;;5120679;28;20081;-61
2023/08/21 00:04:48;;;;;;;8.20;3.50;;;16.90;99.90;;;;;;5118478;28;20537;-60
2023/08/21 00:07:14;;;;;;;9.35;3.70;;;16.90;99.90;;;;;;5120638;28;20229;-60
2023/08/21 00:09:40;;;;;;;10.35;3.63;;;16.90;99.90;;;;;;5120055;28;20042;-60
2023/08/21 00:12:06;;;;;;;7.18;3.28;;;16.90;99.90;;;;;;5120117;28;20042;-60
2023/08/21 00:14:32;;;;;;;12.55;3.55;;;16.90;99.90;;;;;;5120408;28;20517;-60
2023/08/21 00:16:57;;;;;;;10.25;4.05;;;16.80;99.90;;;;;;5119408;28;20067;-61
2023/08/21 00:19:23;;;;;;;8.95;3.88;;;16.80;99.90;;;;;;5120003;28;20046;-60
2023/08/21 00:21:48;;;;;;;9.90;3.90;;;16.70;99.90;;;;;;5119215;28;20046;-60
2023/08/21 00:24:14;;;;;;;8.07;4.15;;;16.70;99.90;;;;;;5118804;28;20051;-60
2023/08/21 00:26:40;;;;;;;11.95;4.57;;;16.70;99.90;;;;;;5119230;28;20039;-60
2023/08/21 00:29:05;;;;;;;10.27;5.20;;;16.70;99.90;;;;;;5119915;28;20043;-59
2023/08/21 00:31:31;;;;;;;9.77;4.80;;;16.60;99.90;;;;;;5119939;28;20040;-60
2023/08/21 00:33:57;;;;;;;8.57;4.55;;;16.60;99.90;;;;;;5119220;28;20574;-60
2023/08/21 00:36:22;;;;;;;9.13;4.75;;;16.60;99.90;;;;;;5120062;28;20550;-60
2023/08/21 00:38:48;;;;;;;9.75;5.18;;;16.60;99.90;;;;;;5119193;28;20408;-60
2023/08/21 00:41:14;;;;;;;11.02;5.10;;;16.60;99.90;;;;;;5119787;28;20046;-60
2023/08/21 00:43:39;;;;;;;10.48;5.30;;;16.60;99.90;;;;;;5119162;28;20100;-60
2023/08/21 00:46:05;;;;;;;9.70;4.85;;;16.60;99.90;;;;;;5120150;28;20044;-60
2023/08/21 00:48:31;;;;;;;12.63;5.60;;;16.60;99.90;;;;;;5119391;28;20040;-60
2023/08/21 00:50:58;;;;;;;9.85;5.03;;;16.60;99.90;;;;;;5117772;28;20044;-60
2023/08/21 00:53:24;;;;;;;11.00;5.38;;;16.60;99.90;;;;;;5119915;28;20143;-60
2023/08/21 00:55:50;;;;;;;9.32;4.90;;;16.50;99.90;;;;;;5109295;28;20045;-60
2023/08/21 00:58:17;;;;;;;8.15;4.88;;;16.50;99.90;;;;;;5099366;28;20048;-60
2023/08/21 01:00:45;;;;;;;11.38;5.18;;;16.40;99.90;;;;;;5098053;28;20050;-60
2023/08/21 01:03:11;;;;;;;13.32;5.97;;;16.30;99.90;;;;;;5098163;28;20086;-60
2023/08/21 01:05:37;;;;;;;12.40;5.60;;;16.40;99.90;;;;;;5098718;28;20045;-60
2023/08/21 01:08:10;;;;;;;11.07;5.18;;;16.40;99.90;;;;;;5098690;28;20051;-60
2023/08/21 01:10:54;;;;;;;9.27;5.10;;;16.40;99.90;;;;;;5099301;28;20066;-60
2023/08/21 01:13:43;;;;;;;10.35;5.43;;;16.40;99.90;;;;;;5098044;28;20044;-60
2023/08/21 01:16:09;;;;;;;12.38;5.53;;;16.40;99.90;;;;;;5099285;28;20061;-60
2023/08/21 01:18:36;;;;;;;10.73;5.18;;;16.40;99.90;;;;;;5098547;28;20052;-60
2023/08/21 01:21:04;;;;;;;9.48;5.28;;;16.40;99.90;;;;;;5098570;28;20055;-60
2023/08/21 01:23:30;;;;;;;12.57;6.18;;;16.40;99.90;;;;;;5098915;28;20044;-60
2023/08/21 01:25:56;;;;;;;10.63;5.82;;;16.40;99.90;;;;;;5096602;28;20051;-60
2023/08/21 01:28:22;;;;;;;10.27;5.43;;;16.30;99.90;;;;;;5099211;28;20044;-60
2023/08/21 01:30:51;;;;;;;10.90;5.18;;;16.30;99.90;;;;;;5098341;28;20052;-60
2023/08/21 01:33:18;;;;;;;10.40;5.85;;;16.30;99.90;;;;;;5098890;28;20048;-60
2023/08/21 01:35:44;;;;;;;10.13;5.63;;;16.20;99.90;;;;;;5098812;28;20063;-60
2023/08/21 01:38:10;;;;;;;10.02;5.20;;;16.20;99.90;;;;;;5098165;28;20040;-60
2023/08/21 01:40:35;;;;;;;10.18;5.78;;;16.10;99.90;;;;;;5100610;28;20036;-60
2023/08/21 01:43:01;;;;;;;12.68;5.72;;;16.20;99.90;;;;;;5102071;28;20054;-60
2023/08/21 01:45:27;;;;;;;9.23;5.25;;;16.20;99.90;;;;;;5102853;28;20514;-60
2023/08/21 01:47:52;;;;;;;10.35;5.03;;;16.20;99.90;;;;;;5101549;28;20585;-60
2023/08/21 01:50:18;;;;;;;12.10;5.82;;;16.10;99.90;;;;;;5102810;28;20055;-60
2023/08/21 01:52:44;;;;;;;10.10;5.50;;;16.20;99.90;;;;;;5102098;28;20036;-60
2023/08/21 01:55:10;;;;;;;11.98;5.35;;;16.20;99.90;;;;;;5104291;28;20126;-60
2023/08/21 01:57:36;;;;;;;12.43;5.07;;;16.10;99.90;;;;;;5121521;28;20050;-60
2023/08/21 02:00:04;;;;;;;11.60;5.47;;;15.90;99.90;;;;;;5120449;28;20083;-61
2023/08/21 02:02:30;;;;;;;12.23;5.10;;;16.10;99.90;;;;;;5122747;28;20103;-60
2023/08/21 02:04:56;;;;;;;12.10;5.25;;;16.10;99.90;;;;;;5121956;28;20046;-60
2023/08/21 02:07:21;;;;;;;12.35;5.43;;;16.00;99.90;;;;;;5123221;28;20038;-60
2023/08/21 02:09:47;;;;;;;11.43;5.25;;;16.00;99.90;;;;;;5122241;28;20061;-60
2023/08/21 02:12:13;;;;;;;11.27;5.00;;;16.10;99.90;;;;;;5104023;28;20653;-60
2023/08/21 02:14:38;;;;;;;14.15;5.47;;;16.10;99.90;;;;;;5122866;28;20077;-60
2023/08/21 02:17:05;;;;;;;11.85;6.00;;;16.10;99.90;;;;;;5121577;28;20035;-60
2023/08/21 02:19:31;;;;;;;9.50;4.97;;;16.00;99.90;;;;;;5122269;28;20052;-61
2023/08/21 02:21:57;;;;;;;10.50;5.30;;;16.10;99.90;;;;;;5121750;28;20036;-61
2023/08/21 02:24:22;;;;;;;11.50;5.32;;;16.00;99.90;;;;;;5122893;28;20039;-60
2023/08/21 02:26:48;;;;;;;9.93;4.97;;;16.00;99.90;;;;;;5121783;28;20039;-59
2023/08/21 02:29:13;;;;;;;9.80;5.07;;;16.00;99.90;;;;;;5122169;28;20119;-60
2023/08/21 02:31:39;;;;;;;11.25;5.28;;;15.90;99.90;;;;;;5120988;28;20048;-60
2023/08/21 02:34:05;;;;;;;10.40;5.18;;;16.00;99.90;;;;;;5121356;28;20035;-60
2023/08/21 02:36:31;;;;;;;10.73;4.90;;;16.00;99.90;;;;;;5122361;28;20071;-60
2023/08/21 02:38:56;;;;;;;9.57;5.07;;;15.90;99.90;;;;;;5119415;28;20039;-61
2023/08/21 02:41:22;;;;;;;9.73;4.30;;;16.00;99.90;;;;;;5122491;28;20077;-60
2023/08/21 02:43:48;;;;;;;9.38;4.63;;;15.90;99.90;;;;;;5121322;28;20533;-60
2023/08/21 02:46:14;;;;;;;10.32;4.38;;;15.90;99.90;;;;;;5122334;28;20044;-61
2023/08/21 02:48:39;;;;;;;10.18;4.72;;;15.80;99.90;;;;;;5121635;28;20112;-60
2023/08/21 02:51:05;;;;;;;9.18;4.80;;;15.80;99.90;;;;;;5120985;28;20035;-60
2023/08/21 02:53:30;;;;;;;9.00;4.32;;;15.70;99.90;;;;;;5122042;28;20031;-60
2023/08/21 02:55:56;;;;;;;9.23;4.40;;;15.60;99.90;;;;;;5111994;28;20040;-61
2023/08/21 02:58:22;;;;;;;6.85;4.55;;;15.60;99.90;;;;;;5101429;28;20083;-60
2023/08/21 03:00:47;;;;;;;10.40;4.40;;;15.50;99.90;;;;;;5100353;28;20090;-60
2023/08/21 03:03:13;;;;;;;11.55;5.30;;;15.60;99.90;;;;;;5101594;28;20075;-61
2023/08/21 03:05:39;;;;;;;9.63;4.80;;;15.50;99.90;;;;;;5100925;28;20044;-60
2023/08/21 03:08:04;;;;;;;11.27;4.65;;;15.50;99.90;;;;;;5100519;28;20127;-60
2023/08/21 03:10:33;;;;;;;9.00;4.60;;;15.50;99.90;;;;;;5101368;28;20059;-60
2023/08/21 03:12:59;;;;;;;10.68;5.00;;;15.50;99.90;;;;;;5100125;28;20127;-60
2023/08/21 03:15:25;;;;;;;7.78;4.28;;;15.40;99.90;;;;;;5101062;28;20044;-60
2023/08/21 03:17:51;;;;;;;9.18;4.78;;;15.40;99.90;;;;;;5100360;28;20040;-60
2023/08/21 03:20:19;;;;;;;9.57;4.38;;;15.50;99.90;;;;;;5099647;28;20410;-60
2023/08/21 03:22:45;;;;;;;10.55;4.53;;;15.40;99.90;;;;;;5100293;28;20052;-60
2023/08/21 03:25:11;;;;;;;9.35;4.40;;;15.40;99.90;;;;;;5100217;28;20058;-60
2023/08/21 03:27:39;;;;;;;10.05;4.60;;;15.40;99.90;;;;;;5100367;28;20119;-60
2023/08/21 03:30:06;;;;;;;9.02;4.65;;;15.30;99.90;;;;;;5098218;28;20059;-62
2023/08/21 03:32:32;;;;;;;11.20;4.70;;;15.30;99.90;;;;;;5101048;28;20065;-61
2023/08/21 03:34:58;;;;;;;9.77;4.05;;;15.30;99.90;;;;;;5099947;28;20040;-60
2023/08/21 03:37:24;;;;;;;8.70;4.20;;;15.30;99.90;;;;;;5099582;28;20194;-60
2023/08/21 03:39:50;;;;;;;11.32;4.68;;;15.40;99.90;;;;;;5100572;28;20075;-60
2023/08/21 03:42:15;;;;;;;8.75;3.65;;;15.30;99.90;;;;;;5100214;28;20048;-60
2023/08/21 03:44:41;;;;;;;8.38;3.70;;;15.30;99.90;;;;;;5100494;28;20068;-60
2023/08/21 03:47:07;;;;;;;9.10;3.45;;;15.30;99.90;;;;;;5099496;28;20044;-62
2023/08/21 03:49:32;;;;;;;7.00;3.17;;;15.30;99.90;;;;;;5100355;28;20487;-60
2023/08/21 03:51:58;;;;;;;7.20;3.05;;;15.40;99.90;;;;;;5099421;28;20044;-61
2023/08/21 03:54:24;;;;;;;7.20;3.00;;;15.30;99.90;;;;;;5100527;28;20040;-60
2023/08/21 03:56:49;;;;;;;6.68;2.72;;;15.30;99.90;;;;;;5097580;28;20054;-60
2023/08/21 03:59:15;;;;;;;8.20;2.80;;;15.20;99.90;;;;;;5120143;28;20052;-61
2023/08/21 04:01:41;;;;;;;6.72;3.35;;;15.20;99.90;;;;;;5120665;28;20100;-60
2023/08/21 04:04:06;;;;;;;6.43;3.40;;;15.30;99.90;;;;;;5119014;28;20043;-60
2023/08/21 04:06:32;;;;;;;7.45;3.65;;;15.30;99.90;;;;;;5119198;28;20051;-60
2023/08/21 04:08:58;;;;;;;7.65;3.03;;;15.30;99.90;;;;;;5119572;28;20099;-61
2023/08/21 04:11:23;;;;;;;6.32;3.30;;;15.30;99.90;;;;;;5120618;28;20079;-60
2023/08/21 04:13:49;;;;;;;7.82;3.70;;;15.30;99.90;;;;;;5119779;28;20052;-59
2023/08/21 04:16:17;;;;;;;7.80;3.08;;;15.30;99.90;;;;;;5120471;28;20040;-60
2023/08/21 04:18:43;;;;;;;6.18;3.08;;;15.20;99.90;;;;;;5120093;28;20054;-59
2023/08/21 04:21:09;;;;;;;7.32;3.25;;;15.30;99.90;;;;;;5119423;28;20079;-60
2023/08/21 04:23:35;;;;;;;5.30;2.72;;;15.30;99.90;;;;;;5120292;28;20566;-60
2023/08/21 04:26:02;;;;;;;7.15;3.10;;;15.20;99.90;;;;;;5119003;28;20510;-60
2023/08/21 04:28:29;;;;;;;6.63;2.83;;;15.20;99.90;;;;;;5119022;28;20044;-60
2023/08/21 04:30:57;;;;;;;5.60;2.90;;;15.10;99.90;;;;;;5118132;28;20517;-60
2023/08/21 04:33:24;;;;;;;5.82;2.75;;;15.30;99.90;;;;;;5120029;28;20124;-60
2023/08/21 04:35:50;;;;;;;7.00;2.85;;;15.20;99.90;;;;;;5120210;28;20040;-60
2023/08/21 04:38:15;;;;;;;6.25;2.72;;;15.20;99.90;;;;;;5117814;28;20054;-60
2023/08/21 04:40:41;;;;;;;6.18;2.60;;;15.20;99.90;;;;;;5109170;28;20036;-60
2023/08/21 04:43:07;;;;;;;7.25;2.92;;;15.10;99.90;;;;;;5098665;28;20093;-60
2023/08/21 04:45:33;;;;;;;6.53;3.20;;;15.10;99.90;;;;;;5098304;28;20055;-60
2023/08/21 04:47:58;;;;;;;6.97;3.13;;;15.10;99.90;;;;;;5098814;28;20541;-60
2023/08/21 04:50:24;;;;;;;8.07;3.20;;;15.20;99.90;;;;;;5099780;28;20663;-60
2023/08/21 04:52:50;;;;;;;9.38;3.35;;;15.10;99.90;;;;;;5099395;28;20047;-60
2023/08/21 04:55:16;;;;;;;8.80;3.70;;;15.20;99.90;;;;;;5097313;28;20040;-60
2023/08/21 04:57:42;;;;;;;7.97;3.55;;;15.30;99.90;;;;;;5099515;28;20063;-60
2023/08/21 05:00:09;;;;;;;9.25;3.42;;;15.40;99.90;;;;;;5098140;28;20495;-60
2023/08/21 05:02:35;;;;;;;8.70;3.55;;;15.40;99.90;;;;;;5099395;28;20530;-61
2023/08/21 05:05:00;;;;;;;8.85;3.40;;;15.40;99.90;;;;;;5098344;28;20052;-60
2023/08/21 05:07:27;;;;;;;8.07;3.20;;;15.50;99.90;;;;;;5099627;28;20032;-59
2023/08/21 05:09:52;;;;;;;8.55;3.03;;;15.50;99.90;;;;;;5097630;28;20082;-60
2023/08/21 05:12:18;;;;;;;8.05;3.00;;;15.50;99.90;;;;;;5098521;28;20040;-60
2023/08/21 05:14:44;;;;;;;8.52;2.80;;;15.60;99.90;;;;;;5099708;28;20126;-59
2023/08/21 05:17:09;;;;;;;8.48;3.03;;;15.60;99.90;;;;;;5102257;28;20067;-60
2023/08/21 05:19:35;;;;;;;5.88;2.90;;;15.60;99.90;;;;;;5103304;28;20050;-60
2023/08/21 05:22:01;;;;;;;8.15;3.10;;;15.70;99.90;;;;;;5102175;28;20383;-59
2023/08/21 05:24:26;;;;;;;8.93;3.40;;;15.70;99.90;;;;;;5103368;28;20040;-60
2023/08/21 05:26:52;;;;;;;8.10;3.35;;;15.80;99.90;;;;;;5102805;28;20047;-60
2023/08/21 05:29:18;;;;;;;7.60;3.00;;;15.80;99.90;;;;;;5103075;28;20094;-60
2023/08/21 05:31:43;;;;;;;7.65;3.30;;;15.90;99.90;;;;;;5103211;28;20051;-60
2023/08/21 05:34:09;;;;;;;8.27;3.40;;;15.90;99.90;;;;;;5102222;28;20099;-60
2023/08/21 05:36:35;;;;;;;9.07;3.35;;;16.00;99.90;;;;;;5103124;28;20044;-60
2023/08/21 05:39:02;;;;;;;7.70;3.42;;;16.00;99.90;;;;;;5101889;28;20067;-60
2023/08/21 05:41:28;;;;;;;9.40;3.40;;;16.00;99.90;;;;;;5103353;28;20085;-60
2023/08/21 05:43:53;;;;;;;8.30;3.47;;;16.00;99.90;;;;;;5102495;28;20123;-60
2023/08/21 05:46:19;;;;;;;8.98;3.42;;;16.10;99.90;;;;;;5102701;28;20044;-60
2023/08/21 05:48:45;;;;;;;7.25;3.20;;;16.10;99.90;;;;;;5102799;28;20055;-60
2023/08/21 05:51:10;;;;;;;7.63;3.17;;;16.20;99.90;;;;;;5101812;28;20040;-60
2023/08/21 05:53:36;;;;;;;8.80;3.30;;;16.10;99.90;;;;;;5100851;28;20068;-59
2023/08/21 05:56:02;;;;;;;8.20;3.25;;;16.20;99.90;;;;;;5109549;28;20056;-62
2023/08/21 05:58:31;;;;;;;8.15;3.13;;;16.30;99.90;;;;;;5121632;28;20039;-60
2023/08/21 06:00:57;;;;;;;8.52;3.33;;;16.40;99.90;;;;;;5119432;28;20414;-60
2023/08/21 06:03:22;;;;;;;6.78;3.47;;;16.40;99.90;;;;;;5119122;28;20160;-60
2023/08/21 06:05:48;;;;;;;7.20;3.10;;;16.50;99.90;;;;;;5119094;28;20501;-60
2023/08/21 06:08:14;;;;;;;10.05;3.15;;;16.70;99.90;;;;;;5116664;28;20050;-61
2023/08/21 06:10:39;;;;;;;7.95;2.88;;;16.70;99.90;;;;;;5119384;28;20070;-60
2023/08/21 06:13:05;;;;;;;7.55;3.47;;;16.90;99.90;;;;;;5117312;28;20063;-61
2023/08/21 06:15:31;;;;;;;7.65;3.05;;;16.80;99.90;;;;;;5119090;28;20028;-60
2023/08/21 06:17:59;;;;;;;8.75;3.35;;;17.00;99.90;;;;;;5117537;28;20619;-60
2023/08/21 06:20:25;;;;;;;8.10;2.90;;;16.90;99.90;;;;;;5119013;28;20047;-60
2023/08/21 06:22:50;;;;;;;7.82;3.20;;;17.00;99.90;;;;;;5117121;28;20070;-61
2023/08/21 06:25:16;;;;;;;9.32;3.42;;;17.20;99.90;;;;;;5117418;28;20054;-60
2023/08/21 06:27:42;;;;;;;8.57;3.10;;;17.30;99.90;;;;;;5117996;28;20502;-60
2023/08/21 06:30:08;;;;;;;7.72;3.00;;;17.50;99.90;;;;;;5117387;28;20031;-60
2023/08/21 06:32:33;;;;;;;9.05;3.00;;;17.50;99.90;;;;;;5118637;28;20055;-60
2023/08/21 06:34:59;;;;;;;8.52;2.78;;;17.60;99.90;;;;;;5117600;28;20056;-60
2023/08/21 06:37:25;;;;;;;8.50;3.10;;;17.60;99.90;;;;;;5118013;28;20143;-60
2023/08/21 06:39:51;;;;;;;9.57;3.10;;;17.70;99.90;;;;;;5118355;28;20051;-60
2023/08/21 06:42:16;;;;;;;8.88;3.13;;;17.80;99.90;;;;;;5117603;28;20032;-60
2023/08/21 06:44:42;;;;;;;6.22;2.88;;;17.80;99.90;;;;;;5118260;28;20047;-60
2023/08/21 06:47:07;;;;;;;7.78;2.72;;;17.90;99.90;;;;;;5116956;28;20035;-60
2023/08/21 06:49:33;;;;;;;8.18;2.90;;;18.00;99.90;;;;;;5117687;28;20586;-60
2023/08/21 06:51:59;;;;;;;7.75;2.90;;;18.00;99.90;;;;;;5113695;28;20048;-60
2023/08/21 06:54:24;;;;;;;8.60;2.97;;;18.20;99.90;;;;;;5100332;28;20044;-60
2023/08/21 06:56:50;;;;;;;9.73;3.50;;;18.20;99.90;;;;;;5105710;28;20561;-60
2023/08/21 06:59:16;;;;;;;7.60;3.35;;;18.20;99.90;;;;;;5104903;28;20062;-60
2023/08/21 07:01:42;;;;;;;11.05;3.05;;;18.30;99.90;;;;;;5095586;28;20518;-60
2023/08/21 07:04:07;;;;;;;6.63;2.75;;;18.40;99.90;;;;;;5093605;28;20047;-60
2023/08/21 07:06:33;;;;;;;7.95;2.78;;;18.50;99.90;;;;;;5109004;28;20027;-60
2023/08/21 07:08:59;;;;;;;6.80;2.60;;;18.60;99.90;;;;;;5115498;28;20043;-60
2023/08/21 07:11:24;;;;;;;12.68;3.03;;;18.80;99.90;;;;;;5117893;28;20169;-60
2023/08/21 07:13:50;;;;;;;7.07;2.72;;;18.80;99.90;;;;;;5116733;28;20040;-60
2023/08/21 07:16:16;;;;;;;9.98;2.83;;;18.90;99.90;;;;;;5117564;28;20040;-60
2023/08/21 07:18:41;;;;;;;6.75;2.30;;;19.00;99.90;;;;;;5117185;28;20047;-60
2023/08/21 07:21:07;;;;;;;7.50;2.50;;;19.00;99.90;;;;;;5115224;28;20542;-60
2023/08/21 07:23:33;;;;;;;9.48;2.30;;;19.10;99.90;;;;;;5117579;28;20469;-60
2023/08/21 07:25:59;;;;;;;6.93;1.90;;;19.30;99.90;;;;;;5100034;28;20041;-60
2023/08/21 07:28:25;;;;;;;9.02;2.25;;;19.40;99.90;;;;;;5087285;28;20056;-60
2023/08/21 07:30:56;;;;;;;7.40;2.05;;;19.30;99.90;;;;;;5086245;28;20047;-60
2023/08/21 07:33:22;;;;;;;8.68;2.13;;;19.40;99.90;;;;;;5086205;28;20040;-60
2023/08/21 07:35:56;;;;;;;6.43;2.15;;;19.60;99.90;;;;;;5101005;28;20048;-60
2023/08/21 07:38:21;;;;;;;8.88;1.83;;;19.70;99.90;;;;;;5101568;28;20051;-60
2023/08/21 07:40:47;;;;;;;7.00;1.58;;;19.80;99.90;;;;;;5105314;28;20147;-59
2023/08/21 07:43:13;;;;;;;8.45;2.10;;;19.90;99.90;;;;;;5105792;28;20031;-60
2023/08/21 07:45:38;;;;;;;7.30;1.80;;;19.90;99.90;;;;;;5105731;28;20048;-59
2023/08/21 07:48:04;;;;;;;6.55;1.85;;;20.10;99.90;;;;;;5097320;28;20130;-59
2023/08/21 07:50:30;;;;;;;7.10;1.63;;;20.20;99.90;;;;;;5096203;28;20154;-59
2023/08/21 07:52:56;;;;;;;5.72;1.77;;;20.20;99.90;;;;;;5095310;28;20036;-60
2023/08/21 07:55:21;;;;;;;8.60;1.80;;;20.10;99.90;;;;;;5099285;28;20063;-59
2023/08/21 07:57:47;;;;;;;8.73;2.00;;;20.20;99.90;;;;;;5115291;28;20047;-60
2023/08/21 08:00:13;;;;;;;6.75;1.73;;;20.30;99.90;;;;;;5115018;28;20056;-60
2023/08/21 08:02:40;;;;;;;6.95;2.28;;;20.30;99.90;;;;;;5115884;28;20055;-60
2023/08/21 08:05:06;;;;;;;6.38;2.35;;;20.40;99.90;;;;;;5115948;28;20056;-60
2023/08/21 08:07:31;;;;;;;7.03;2.10;;;20.50;99.90;;;;;;5116773;28;20460;-60
2023/08/21 08:09:57;;;;;;;8.65;2.05;;;20.50;99.00;;;;;;5116517;28;20032;-59
2023/08/21 08:12:23;;;;;;;5.05;1.70;;;20.60;92.50;;;;;;5113738;28;20039;-60
2023/08/21 08:14:49;;;;;;;7.45;1.67;;;20.50;91.10;;;;;;5115280;28;20048;-60
2023/08/21 08:17:14;;;;;;;4.90;1.50;;;20.50;93.70;;;;;;5114758;28;20043;-60
2023/08/21 08:19:40;;;;;;;6.55;1.35;;;20.70;93.70;;;;;;5115553;28;20090;-60
2023/08/21 08:22:05;;;;;;;5.85;1.48;;;20.70;93.50;;;;;;5115207;28;20044;-60
2023/08/21 08:24:31;;;;;;;7.57;1.30;;;20.80;92.20;;;;;;5115088;28;20139;-60
2023/08/21 08:26:57;;;;;;;6.07;1.30;;;20.90;87.20;;;;;;5116220;28;20545;-60
2023/08/21 08:29:22;;;;;;;5.05;1.55;;;20.90;85.80;;;;;;5115261;28;20054;-61
2023/08/21 08:31:48;;;;;;;6.20;1.60;;;21.00;88.00;;;;;;5116318;28;20668;-60
2023/08/21 08:34:14;;;;;;;5.90;1.20;;;21.10;74.80;;;;;;5114945;28;20044;-60
2023/08/21 08:36:41;;;;;;;6.30;1.52;;;21.10;75.00;;;;;;5116320;28;20131;-59
2023/08/21 08:39:07;;;;;;;5.00;1.38;;;21.10;73.70;;;;;;5108754;28;20040;-59
2023/08/21 08:41:48;;;;;;;5.60;1.52;;;21.10;74.40;;;;;;5092868;28;20078;-60
2023/08/21 08:44:16;;;;;;;5.40;1.70;;;21.10;68.20;;;;;;5088085;28;20128;-60
2023/08/21 08:46:43;;;;;;;4.15;1.27;;;21.10;66.10;;;;;;5087263;28;20048;-60
2023/08/21 08:49:08;;;;;;;5.07;1.30;;;21.10;68.40;;;;;;5088363;28;20032;-61
2023/08/21 08:51:37;;;;;;;5.72;1.60;;;21.30;73.00;;;;;;5087192;28;20043;-61
2023/08/21 08:54:03;;;;;;;6.90;1.40;;;21.30;70.20;;;;;;5072633;28;20071;-60
2023/08/21 08:56:29;;;;;;;4.72;1.30;;;21.50;72.90;;;;;;5095472;28;20032;-60
2023/08/21 08:58:55;;;;;;;7.20;2.00;;;21.60;69.50;;;;;;5115842;28;20036;-59
2023/08/21 09:01:22;;;;;;;4.10;1.30;;;21.70;71.50;;;;;;5119626;28;20071;-59
2023/08/21 09:03:49;;;;;;;4.47;1.38;;;21.80;61.10;;;;;;5118950;28;20053;-59
2023/08/21 09:06:15;;;;;;;6.78;1.30;;;21.80;67.00;;;;;;5118434;28;20104;-60
2023/08/21 09:08:53;;;;;;;5.80;1.65;;;21.70;63.30;;;;;;5118443;28;20036;-60
2023/08/21 09:11:20;;;;;;;4.80;1.58;;;21.80;59.70;;;;;;5119999;28;20044;-60
2023/08/21 09:13:48;;;;;;;4.28;1.60;;;22.00;56.50;;;;;;5118873;28;20061;-60
2023/08/21 09:16:16;;;;;;;5.72;1.40;;;21.90;55.90;;;;;;5119437;28;20031;-60
2023/08/21 09:18:56;;;;;;;7.45;1.45;;;21.90;56.80;;;;;;5119201;28;20082;-59
2023/08/21 09:21:24;;;;;;;5.45;1.40;;;22.00;57.10;;;;;;5118136;28;20056;-59
2023/08/21 09:23:58;;;;;;;6.38;1.58;;;22.10;57.30;;;;;;5119679;28;20126;-60
2023/08/21 09:26:23;;;;;;;6.18;1.30;;;22.20;49.00;;;;;;5118281;28;20048;-60
2023/08/21 09:28:51;;;;;;;6.53;1.80;;;22.20;53.30;;;;;;5118873;28;20091;-60
2023/08/21 09:31:23;;;;;;;7.60;1.70;;;22.30;57.30;;;;;;5118865;28;20415;-60
2023/08/21 09:34:00;;;;;;;5.65;1.63;;;22.40;51.20;;;;;;5118226;28;20051;-60
2023/08/21 09:36:27;;;;;;;6.80;1.90;;;22.50;49.90;;;;;;5118991;28;20047;-59
2023/08/21 09:38:53;;;;;;;7.50;1.80;;;22.50;51.30;;;;;;5111679;28;20046;-60
2023/08/21 09:41:20;;;;;;;6.63;1.55;;;22.50;51.80;;;;;;5118113;28;20047;-60
2023/08/21 09:43:45;;;;;;;5.57;1.67;;;22.60;51.20;;;;;;5118389;28;20040;-60
2023/08/21 09:46:23;;;;;;;6.88;1.60;;;22.60;50.60;;;;;;5097218;28;20074;-60
2023/08/21 09:48:51;;;;;;;6.75;2.03;;;22.80;42.60;;;;;;5098470;28;20044;-59
2023/08/21 09:51:17;;;;;;;7.45;2.25;;;22.70;45.20;;;;;;5100445;28;20047;-60
2023/08/21 09:53:43;;;;;;;6.45;1.67;;;22.70;36.80;;;;;;5104413;28;20044;-60
2023/08/21 09:56:08;;;;;;;5.88;1.60;;;22.70;32.20;;;;;;5108347;28;20582;-60
2023/08/21 09:58:36;;;;;;;6.00;1.80;;;22.70;31.60;;;;;;5117679;28;20044;-60
2023/08/21 10:01:11;;;;;;;6.50;2.00;;;22.70;34.80;;;;;;5118656;28;20176;-59
2023/08/21 10:03:39;;;;;;;4.78;1.50;;;22.70;32.30;;;;;;5121618;28;20044;-57
2023/08/21 10:06:06;;;;;;;8.75;2.15;;;23.00;39.40;;;;;;5122665;28;20038;-60
2023/08/21 10:08:41;;;;;;;5.03;1.50;;;23.10;40.70;;;;;;5120353;28;20078;-60
2023/08/21 10:11:09;;;;;;;5.63;1.70;;;23.10;31.90;;;;;;5122739;28;20382;-60
2023/08/21 10:13:38;;;;;;;6.55;1.60;;;23.00;25.70;;;;;;5121983;28;20056;-60
2023/08/21 10:16:05;;;;;;;7.07;1.65;;;23.20;29.90;;;;;;5122660;28;20039;-60
2023/08/21 10:18:36;;;;;;;8.68;1.52;;;23.20;30.60;;;;;;5122362;28;20055;-60
2023/08/21 10:21:13;;;;;;;6.70;1.83;;;23.30;30.10;;;;;;5121758;28;20123;-60
2023/08/21 10:23:40;;;;;;;6.20;1.70;;;23.40;30.00;;;;;;5122371;28;20278;-60
2023/08/21 10:26:07;;;;;;;4.93;1.60;;;23.50;31.60;;;;;;5120917;28;20052;-60
2023/08/21 10:28:53;;;;;;;6.97;2.13;;;23.50;27.00;;;;;;5122226;27;20380;-60
2023/08/21 10:31:39;;;;;;;6.88;1.95;;;23.70;22.80;;;;;;5122139;28;20043;-60
2023/08/21 10:34:09;;;;;;;7.32;1.73;;;23.70;18.20;;;;;;5119967;28;20047;-61
2023/08/21 10:36:43;;;;;;;5.63;1.85;;;23.50;15.30;;;;;;5122266;28;20051;-61
2023/08/21 10:39:25;;;;;;;6.55;1.73;;;23.70;23.00;;;;;;5120583;28;20048;-60
2023/08/21 10:42:09;;;;;;;6.97;1.60;;;23.70;24.00;;;;;;5122262;28;20039;-61
2023/08/21 10:44:51;;;;;;;6.32;1.85;;;23.80;17.60;;;;;;5122027;28;20067;-61
2023/08/21 10:47:26;;;;;;;;;;;23.60;14.20;;;;;;5121007;27;20055;-60
2023/08/21 10:50:00;;;;;;;4.93;1.50;;;23.50;19.70;;;;;;5121924;28;19919;-63
2023/08/21 10:52:27;;;;;;;7.82;2.05;;;23.80;24.30;;;;;;5121153;28;20039;-60
2023/08/21 10:55:00;;;;;;;8.38;1.70;;;24.00;22.30;;;;;;5121689;28;20036;-60
2023/08/21 10:57:28;;;;;;;6.15;2.00;;;23.70;14.00;;;;;;5079321;28;20060;-60
2023/08/21 10:59:59;;;;;;;5.57;1.65;;;23.90;21.80;;;;;;5079754;28;20626;-61
2023/08/21 11:02:28;;;;;;;5.05;1.75;;;23.80;18.40;;;;;;5081456;28;20045;-60
2023/08/21 11:04:55;;;;;;;7.60;2.53;;;24.10;18.20;;;;;;5080502;28;20041;-57
2023/08/21 11:07:21;;;;;;;4.65;1.48;;;23.90;16.90;;;;;;5081095;28;20040;-60
2023/08/21 11:09:50;;;;;;;6.05;1.73;;;24.20;19.70;;;;;;5080967;28;20053;-60
2023/08/21 11:12:18;;;;;;;7.03;1.88;;;24.10;18.50;;;;;;5098813;28;20145;-61
2023/08/21 11:14:45;;;;;;;5.90;1.80;;;24.10;16.20;;;;;;5121553;28;20039;-60
2023/08/21 11:17:11;;;;;;;10.45;3.17;;;24.40;22.50;;;;;;5119944;28;20032;-61
2023/08/21 11:19:38;;;;;;;7.20;1.52;;;24.50;15.00;;;;;;5121361;28;20043;-61
2023/08/21 11:22:05;;;;;;;5.03;1.23;;;24.30;13.40;;;;;;5120514;28;20084;-60
2023/08/21 11:24:37;;;;;;;6.22;1.45;;;24.50;16.00;;;;;;5121361;28;20043;-61
2023/08/21 11:27:10;;;;;;;5.85;1.40;;;24.60;14.80;;;;;;5121197;28;20052;-60
2023/08/21 11:29:40;;;;;;;6.45;1.58;;;24.20;10.30;;;;;;5119234;28;20039;-61
2023/08/21 11:32:16;;;;;;;7.18;1.52;;;24.50;12.60;;;;;;5119910;28;20083;-61
2023/08/21 11:34:47;;;;;;;5.47;1.35;;;24.50;16.90;;;;;;5120452;28;20040;-60
2023/08/21 11:37:13;;;;;;;8.13;2.00;;;24.80;18.20;;;;;;5121264;28;20043;-60
2023/08/21 11:39:44;;;;;;;5.32;1.58;;;24.80;16.60;;;;;;5120887;28;20112;-60
2023/08/21 11:42:12;;;;;;;4.47;1.27;;;24.40;15.40;;;;;;5120210;28;20095;-60
2023/08/21 11:44:45;;;;;;;5.47;1.05;;;24.20;15.10;;;;;;5121186;28;20043;-60
2023/08/21 11:47:11;;;;;;;5.93;1.20;;;23.90;9.20;;;;;;5119789;28;20054;-61
2023/08/21 11:49:41;;;;;;;6.72;1.20;;;24.10;8.10;;;;;;5119059;28;20051;-61
2023/08/21 11:52:07;;;;;;;6.53;1.30;;;24.50;14.70;;;;;;5119824;28;20092;-60
2023/08/21 11:54:37;;;;;;;5.13;1.52;;;24.40;14.50;;;;;;5121119;28;20070;-61
2023/08/21 11:57:13;;;;;;;5.65;1.35;;;24.40;14.10;;;;;;5102149;28;20051;-61
2023/08/21 11:59:39;;;;;;;7.43;1.30;;;24.40;4.30;;;;;;5107270;28;20063;-60
2023/08/21 12:02:16;;;;;;;6.85;1.65;;;24.20;11.80;;;;;;5114450;28;20047;-60
2023/08/21 12:04:43;;;;;;;8.05;1.70;;;24.30;12.60;;;;;;5119303;28;20070;-62
2023/08/21 12:07:09;;;;;;;6.35;1.60;;;24.40;7.60;;;;;;5120624;28;20063;-60
2023/08/21 12:09:34;;;;;;;6.57;1.40;;;24.60;7.00;;;;;;5118762;28;20043;-60
2023/08/21 12:12:00;;;;;;;6.40;1.20;;;24.90;11.60;;;;;;5120020;28;20048;-60
2023/08/21 12:14:28;;;;;;;6.05;1.27;;;24.40;11.00;;;;;;5120517;28;20055;-60
2023/08/21 12:16:54;;;;;;;6.03;1.30;;;24.70;10.50;;;;;;5119150;28;20040;-60
2023/08/21 12:19:22;;;;;;;3.58;1.10;;;25.00;11.00;;;;;;5119945;28;20050;-61
2023/08/21 12:21:48;;;;;;;5.30;1.30;;;24.80;1.70;;;;;;5119198;28;20040;-59
2023/08/21 12:24:14;;;;;;;5.00;1.50;;;24.80;4.20;;;;;;5120060;28;20352;-60
2023/08/21 12:26:40;;;;;;;3.65;1.30;;;24.90;5.80;;;;;;5119597;28;20085;-59
2023/08/21 12:29:05;;;;;;;6.68;1.40;;;25.00;4.50;;;;;;5119645;28;20043;-60
2023/08/21 12:31:31;;;;;;;5.70;1.10;;;24.80;1.00;;;;;;5118602;28;20047;-61
2023/08/21 12:33:57;;;;;;;6.22;1.20;;;25.00;1.00;;;;;;5119195;28;20089;-61
2023/08/21 12:36:23;;;;;;;6.32;1.10;;;25.00;1.70;;;;;;5120139;28;20065;-60
2023/08/21 12:38:48;;;;;;;7.13;1.40;;;25.30;7.00;;;;;;5118853;28;20050;-60
2023/08/21 12:41:14;;;;;;;6.13;1.20;;;25.40;2.50;;;;;;5120195;28;20040;-60
2023/08/21 12:43:40;;;;;;;7.65;1.50;;;25.40;6.20;;;;;;5119412;28;20239;-60
2023/08/21 12:46:06;;;;;;;5.50;1.33;;;25.50;4.30;;;;;;5119716;28;20458;-61